createdAt,value
2023-04-09T00:01:04.221Z,7.13
2023-04-09T00:03:32.184Z,7.27
2023-04-09T00:06:00.196Z,8.10
2023-04-09T00:08:29.615Z,9.13
2023-04-09T00:10:59.101Z,9.73
2023-04-09T00:13:38.697Z,8.33
2023-04-09T00:16:08.441Z,10.33
2023-04-09T00:18:37.642Z,9.77
2023-04-09T00:21:07.194Z,8.40
2023-04-09T00:23:36.774Z,10.60
2023-04-09T00:26:07.725Z,11.93
2023-04-09T00:28:36.048Z,12.13
2023-04-09T00:31:04.024Z,10.70
2023-04-09T00:33:31.933Z,8.63
2023-04-09T00:35:59.950Z,10.23
2023-04-09T00:38:28.058Z,8.00
2023-04-09T00:40:57.637Z,9.80
2023-04-09T00:43:25.498Z,9.03
2023-04-09T00:45:53.550Z,11.50
2023-04-09T00:48:23.790Z,10.63
2023-04-09T00:50:52.174Z,10.47
2023-04-09T00:53:21.017Z,11.20
2023-04-09T00:55:48.892Z,7.53
2023-04-09T00:58:20.675Z,8.40
2023-04-09T01:00:48.674Z,8.20
2023-04-09T01:03:17.184Z,10.07
2023-04-09T01:05:55.009Z,10.27
2023-04-09T01:08:38.850Z,10.23
2023-04-09T01:11:15.850Z,10.57
2023-04-09T01:13:53.782Z,10.57
2023-04-09T01:16:24.788Z,10.97
2023-04-09T01:18:59.220Z,10.57
2023-04-09T01:21:32.028Z,9.17
2023-04-09T01:24:08.714Z,10.60
2023-04-09T01:26:58.357Z,9.00
2023-04-09T01:29:36.777Z,8.93
2023-04-09T01:32:08.243Z,10.90
2023-04-09T01:34:38.623Z,9.40
2023-04-09T01:37:07.566Z,9.63
2023-04-09T01:39:38.006Z,10.93
2023-04-09T01:42:09.680Z,9.53
2023-04-09T01:44:40.412Z,9.87
2023-04-09T01:47:09.585Z,10.60
2023-04-09T01:49:38.541Z,11.30
2023-04-09T01:52:07.209Z,11.20
2023-04-09T01:54:35.051Z,11.00
2023-04-09T01:57:03.225Z,11.20
2023-04-09T01:59:31.451Z,8.40
2023-04-09T02:02:06.791Z,11.53
2023-04-09T02:04:36.788Z,11.90
2023-04-09T02:07:11.279Z,11.67
2023-04-09T02:09:41.481Z,11.77
2023-04-09T02:12:13.595Z,11.53
2023-04-09T02:14:42.224Z,11.60
2023-04-09T02:17:11.370Z,11.43
2023-04-09T02:19:40.640Z,11.83
2023-04-09T02:22:08.828Z,9.67
2023-04-09T02:24:37.457Z,12.13
2023-04-09T02:27:06.168Z,12.40
2023-04-09T02:29:34.665Z,11.80
2023-04-09T02:32:03.609Z,10.60
2023-04-09T02:34:32.831Z,11.30
2023-04-09T02:37:00.744Z,11.53
2023-04-09T02:39:28.542Z,12.07
2023-04-09T02:41:57.856Z,11.00
2023-04-09T02:44:27.970Z,10.77
2023-04-09T02:46:57.159Z,12.53
2023-04-09T02:49:25.079Z,9.27
2023-04-09T02:51:54.363Z,11.63
2023-04-09T02:54:22.402Z,10.33
2023-04-09T02:56:50.318Z,10.30
2023-04-09T02:59:18.396Z,9.53
2023-04-09T03:01:46.487Z,10.03
2023-04-09T03:04:14.724Z,11.87
2023-04-09T03:06:42.700Z,11.20
2023-04-09T03:09:11.985Z,12.10
2023-04-09T03:11:40.276Z,12.37
2023-04-09T03:14:08.074Z,12.87
2023-04-09T03:16:35.927Z,12.43
2023-04-09T03:19:03.842Z,12.20
2023-04-09T03:21:32.035Z,11.70
2023-04-09T03:24:00.201Z,12.50
2023-04-09T03:26:36.083Z,11.07
2023-04-09T03:29:07.064Z,10.67
2023-04-09T03:31:35.139Z,10.97
2023-04-09T03:34:03.088Z,9.77
2023-04-09T03:36:34.375Z,11.13
2023-04-09T03:39:10.389Z,11.97
2023-04-09T03:41:43.952Z,11.40
2023-04-09T03:44:15.758Z,10.67
2023-04-09T03:47:06.601Z,10.67
2023-04-09T03:49:36.560Z,8.87
2023-04-09T03:52:26.715Z,10.00
2023-04-09T03:55:04.470Z,10.37
2023-04-09T03:57:33.971Z,7.90
2023-04-09T04:00:02.431Z,8.00
2023-04-09T04:02:40.106Z,7.90
2023-04-09T04:05:12.162Z,11.20
2023-04-09T04:07:46.256Z,10.17
2023-04-09T04:10:19.471Z,10.47
2023-04-09T04:12:49.836Z,9.07
2023-04-09T04:15:24.743Z,11.13
2023-04-09T04:17:56.432Z,11.07
2023-04-09T04:20:37.048Z,8.47
2023-04-09T04:23:09.551Z,8.70
2023-04-09T04:25:43.082Z,11.00
2023-04-09T04:28:16.396Z,11.07
2023-04-09T04:30:44.331Z,11.13
2023-04-09T04:33:12.645Z,10.53
2023-04-09T04:35:48.907Z,10.87
2023-04-09T04:38:41.263Z,10.57
2023-04-09T04:41:16.153Z,10.97
2023-04-09T04:43:51.990Z,10.03
2023-04-09T04:46:23.359Z,9.53
2023-04-09T04:48:51.613Z,9.43
2023-04-09T04:51:20.261Z,10.43
2023-04-09T04:54:00.874Z,11.97
2023-04-09T04:56:29.273Z,9.10
2023-04-09T04:59:05.319Z,8.23
2023-04-09T05:01:45.464Z,9.17
2023-04-09T05:04:14.494Z,10.63
2023-04-09T05:06:42.402Z,8.77
2023-04-09T05:09:14.714Z,7.80
2023-04-09T05:11:54.961Z,9.73
2023-04-09T05:14:25.396Z,9.93
2023-04-09T05:16:53.510Z,9.13
2023-04-09T05:19:25.419Z,9.30
2023-04-09T05:21:59.272Z,8.93
2023-04-09T05:24:27.182Z,8.90
2023-04-09T05:26:54.991Z,8.50
2023-04-09T05:29:24.672Z,9.43
2023-04-09T05:31:52.576Z,10.10
2023-04-09T05:34:29.237Z,10.23
2023-04-09T05:36:58.110Z,10.60
2023-04-09T05:39:26.960Z,8.70
2023-04-09T05:41:56.260Z,11.17
2023-04-09T05:44:38.828Z,10.77
2023-04-09T05:47:14.492Z,10.43
2023-04-09T05:49:57.026Z,10.47
2023-04-09T05:52:25.067Z,10.73
2023-04-09T05:54:53.912Z,11.50
2023-04-09T05:57:30.253Z,11.73
2023-04-09T06:00:03.301Z,11.40
2023-04-09T06:02:44.762Z,10.40
2023-04-09T06:05:12.930Z,9.53
2023-04-09T06:07:40.776Z,9.43
2023-04-09T06:10:09.751Z,10.53
2023-04-09T06:12:37.773Z,11.20
2023-04-09T06:15:09.012Z,10.37
2023-04-09T06:17:37.126Z,11.73
2023-04-09T06:20:06.505Z,10.67
2023-04-09T06:22:35.448Z,10.33
2023-04-09T06:25:06.180Z,10.77
2023-04-09T06:27:34.547Z,8.67
2023-04-09T06:30:05.044Z,11.07
2023-04-09T06:32:46.980Z,9.93
2023-04-09T06:35:21.489Z,10.07
2023-04-09T06:37:58.723Z,10.30
2023-04-09T06:40:53.979Z,10.70
2023-04-09T06:43:34.892Z,9.40
2023-04-09T06:46:21.590Z,9.77
2023-04-09T06:48:50.889Z,8.63
2023-04-09T06:51:20.919Z,10.03
2023-04-09T06:53:49.841Z,9.50
2023-04-09T06:56:18.151Z,9.10
2023-04-09T06:58:48.418Z,10.30
2023-04-09T07:01:17.438Z,8.37
2023-04-09T07:03:45.798Z,7.33
2023-04-09T07:06:15.302Z,8.10
2023-04-09T07:08:44.332Z,9.13
2023-04-09T07:11:12.204Z,9.63
2023-04-09T07:13:40.078Z,8.97
2023-04-09T07:16:07.982Z,8.47
2023-04-09T07:18:35.822Z,9.60
2023-04-09T07:21:04.437Z,9.07
2023-04-09T07:23:37.211Z,9.75
2023-04-09T07:26:05.371Z,10.18
2023-04-09T07:28:33.343Z,9.57
2023-04-09T07:31:02.890Z,9.88
2023-04-09T07:33:31.189Z,10.65
2023-04-09T07:35:59.226Z,9.88
2023-04-09T07:38:30.444Z,10.00
2023-04-09T07:41:00.805Z,9.10
2023-04-09T07:43:28.982Z,10.52
2023-04-09T07:45:57.088Z,8.93
2023-04-09T07:48:25.256Z,8.82
2023-04-09T07:50:55.457Z,8.82
2023-04-09T07:53:23.307Z,8.75
2023-04-09T07:55:52.421Z,8.90
2023-04-09T07:58:21.569Z,9.50
2023-04-09T08:00:49.512Z,9.07
2023-04-09T08:03:17.686Z,9.30
2023-04-09T08:05:48.228Z,9.00
2023-04-09T08:08:16.068Z,9.10
2023-04-09T08:10:43.924Z,8.48
2023-04-09T08:13:12.124Z,7.90
2023-04-09T08:15:41.513Z,7.70
2023-04-09T08:18:09.490Z,7.07
2023-04-09T08:20:38.187Z,6.15
2023-04-09T08:23:06.164Z,5.50
2023-04-09T08:25:34.361Z,6.07
2023-04-09T08:28:02.343Z,5.60
2023-04-09T08:30:34.184Z,4.75
2023-04-09T08:33:03.680Z,4.65
2023-04-09T08:35:31.886Z,4.70
2023-04-09T08:38:00.189Z,4.90
2023-04-09T08:40:28.442Z,4.75
2023-04-09T08:42:57.796Z,4.90
2023-04-09T08:45:25.930Z,5.55
2023-04-09T08:47:54.001Z,5.00
2023-04-09T08:50:23.753Z,4.87
2023-04-09T08:52:52.048Z,4.60
2023-04-09T08:55:20.308Z,5.53
2023-04-09T08:57:48.329Z,5.32
2023-04-09T09:00:18.402Z,5.15
2023-04-09T09:03:03.448Z,5.57
2023-04-09T09:05:40.099Z,5.15
2023-04-09T09:08:09.055Z,4.97
2023-04-09T09:10:41.956Z,4.10
2023-04-09T09:13:21.308Z,4.50
2023-04-09T09:15:52.805Z,4.10
2023-04-09T09:18:20.941Z,4.35
2023-04-09T09:20:50.185Z,5.43
2023-04-09T09:23:18.013Z,3.80
2023-04-09T09:25:45.884Z,3.58
2023-04-09T09:28:15.063Z,3.95
2023-04-09T09:30:43.160Z,4.05
2023-04-09T09:33:12.227Z,4.45
2023-04-09T09:35:52.169Z,4.65
2023-04-09T09:38:20.050Z,4.50
2023-04-09T09:40:48.598Z,5.72
2023-04-09T09:43:16.522Z,4.65
2023-04-09T09:45:47.768Z,4.97
2023-04-09T09:48:16.327Z,5.07
2023-04-09T09:50:47.001Z,5.15
2023-04-09T09:53:23.698Z,4.93
2023-04-09T09:55:57.304Z,5.15
2023-04-09T09:58:29.157Z,6.18
2023-04-09T10:00:57.936Z,6.72
2023-04-09T10:03:28.205Z,6.20
2023-04-09T10:05:57.544Z,6.28
2023-04-09T10:08:28.014Z,6.50
2023-04-09T10:10:56.312Z,6.65
2023-04-09T10:13:32.496Z,6.78
2023-04-09T10:16:01.718Z,6.80
2023-04-09T10:18:33.540Z,6.37
2023-04-09T10:21:07.922Z,6.75
2023-04-09T10:23:40.318Z,6.47
2023-04-09T10:26:11.352Z,6.75
2023-04-09T10:28:40.189Z,7.00
2023-04-09T10:31:10.563Z,6.32
2023-04-09T10:33:40.538Z,6.57
2023-04-09T10:36:13.525Z,5.40
2023-04-09T10:38:48.292Z,4.40
2023-04-09T10:41:24.111Z,4.57
2023-04-09T10:43:54.842Z,5.85
2023-04-09T10:46:30.483Z,4.60
2023-04-09T10:49:11.797Z,4.20
2023-04-09T10:51:40.158Z,4.88
2023-04-09T10:54:46.117Z,3.92
2023-04-09T10:57:19.869Z,4.00
2023-04-09T10:59:49.724Z,5.13
2023-04-09T11:02:57.432Z,3.70
2023-04-09T11:05:44.312Z,3.30
2023-04-09T11:08:13.954Z,3.27
2023-04-09T11:10:49.801Z,3.90
2023-04-09T11:13:20.098Z,4.32
2023-04-09T11:15:48.204Z,3.83
2023-04-09T11:18:17.138Z,3.60
2023-04-09T11:20:45.036Z,3.37
2023-04-09T11:23:14.776Z,3.85
2023-04-09T11:25:42.779Z,3.72
2023-04-09T11:28:12.536Z,3.60
2023-04-09T11:30:41.465Z,6.60
2023-04-09T11:33:09.649Z,8.85
2023-04-09T11:35:37.967Z,6.95
2023-04-09T11:38:10.092Z,4.63
2023-04-09T11:40:43.532Z,4.50
2023-04-09T11:43:12.849Z,4.40
2023-04-09T11:45:40.723Z,4.53
2023-04-09T11:48:08.995Z,4.30
2023-04-09T11:50:37.748Z,4.13
2023-04-09T11:53:17.444Z,4.00
2023-04-09T11:55:51.010Z,4.05
2023-04-09T11:58:23.706Z,4.22
2023-04-09T12:00:54.277Z,3.95
